Time;durP1;ratioP1;P1;durP2;ratioP2;P2;SDS_P1;SDS_P2;PMS_P1;PMS_P2;Temp;Humidity;BMP_temperature;BMP_pressure;BME280_temperature;BME280_humidity;BME280_pressure;Samples;Min_cycle;Max_cycle;Signal;HPM_P1;HPM_P2
2023/10/26 00:00:48;;;;;;;3.30;2.67;;;10.20;99.90;;;;;;5075672;28;20622;-89
2023/10/26 00:03:16;;;;;;;2.93;2.73;;;10.10;99.90;;;;;;5058960;28;20354;-90
2023/10/26 00:05:42;;;;;;;28.20;4.93;;;10.20;99.90;;;;;;5058762;28;20627;-90
2023/10/26 00:08:07;;;;;;;5.10;3.27;;;10.30;99.90;;;;;;5058307;28;20252;-90
2023/10/26 00:10:33;;;;;;;8.43;3.47;;;10.10;99.90;;;;;;5075302;28;20217;-90
2023/10/26 00:12:59;;;;;;;3.23;2.60;;;10.20;99.90;;;;;;5075896;28;20629;-90
2023/10/26 00:15:25;;;;;;;5.47;2.57;;;10.20;99.90;;;;;;5074868;28;20221;-90
2023/10/26 00:17:51;;;;;;;4.90;3.27;;;10.20;99.90;;;;;;5074430;28;20582;-90
2023/10/26 00:20:17;;;;;;;4.63;3.30;;;10.20;99.90;;;;;;5074720;28;20220;-89
2023/10/26 00:22:45;;;;;;;3.10;2.70;;;10.30;99.90;;;;;;5074909;28;20220;-90
2023/10/26 00:25:11;;;;;;;4.77;3.17;;;10.30;99.90;;;;;;5075414;28;20184;-90
2023/10/26 00:27:40;;;;;;;5.83;5.33;;;10.40;99.90;;;;;;5075137;28;20201;-90
2023/10/26 00:30:14;;;;;;;8.73;3.73;;;10.70;99.90;;;;;;5074962;28;20217;-90
2023/10/26 00:32:40;;;;;;;5.27;2.27;;;10.90;99.90;;;;;;5074529;28;20216;-90
2023/10/26 00:35:06;;;;;;;12.20;6.60;;;11.10;99.90;;;;;;5074662;28;20243;-90
2023/10/26 00:37:35;;;;;;;6.20;3.30;;;11.10;99.90;;;;;;5042277;28;20301;-89
2023/10/26 00:40:01;;;;;;;4.17;3.77;;;11.00;99.90;;;;;;5075542;28;20224;-90
2023/10/26 00:42:30;;;;;;;7.10;3.77;;;10.70;99.90;;;;;;5074871;28;20286;-90
2023/10/26 00:44:56;;;;;;;4.40;3.47;;;10.60;99.90;;;;;;5074832;28;20228;-90
2023/10/26 00:47:24;;;;;;;5.90;5.37;;;10.40;99.90;;;;;;5073752;28;20221;-90
2023/10/26 00:49:52;;;;;;;5.57;3.57;;;10.50;99.90;;;;;;5074319;28;20676;-90
2023/10/26 00:52:21;;;;;;;3.70;3.40;;;10.40;99.90;;;;;;5074635;28;20223;-90
2023/10/26 00:54:47;;;;;;;2.37;2.03;;;10.40;99.90;;;;;;5075217;28;20173;-90
2023/10/26 00:57:17;;;;;;;4.10;3.80;;;10.50;99.90;;;;;;5075048;28;20270;-89
2023/10/26 00:59:46;;;;;;;4.67;4.17;;;10.40;99.90;;;;;;5073994;28;20228;-90
2023/10/26 01:02:13;;;;;;;10.60;3.33;;;10.40;99.90;;;;;;5074544;28;20221;-90
2023/10/26 01:04:40;;;;;;;6.27;3.43;;;10.30;99.90;;;;;;5074618;28;20213;-91
2023/10/26 01:07:06;;;;;;;6.87;3.80;;;10.40;99.90;;;;;;5058165;28;20183;-89
2023/10/26 01:09:45;;;;;;;5.17;3.47;;;10.40;99.90;;;;;;5074527;28;20942;-89
2023/10/26 01:12:21;;;;;;;10.27;4.53;;;10.30;99.90;;;;;;5074838;28;20213;-90
2023/10/26 01:14:57;;;;;;;4.27;3.93;;;10.30;99.90;;;;;;5074692;28;20231;-90
2023/10/26 01:17:24;;;;;;;2.77;2.53;;;10.20;99.90;;;;;;5074217;28;20244;-90
2023/10/26 01:19:50;;;;;;;4.83;3.07;;;10.20;99.90;;;;;;5074018;28;20217;-90
2023/10/26 01:22:15;;;;;;;9.10;5.50;;;10.20;99.90;;;;;;5074282;28;20188;-90
2023/10/26 01:24:41;;;;;;;6.70;3.83;;;10.10;99.90;;;;;;5075153;28;20218;-89
2023/10/26 01:27:07;;;;;;;4.73;3.53;;;10.20;99.90;;;;;;5074438;28;20303;-90
2023/10/26 01:29:33;;;;;;;3.20;2.90;;;10.20;99.90;;;;;;5073618;28;20637;-89
2023/10/26 01:32:02;;;;;;;4.67;4.23;;;10.10;99.90;;;;;;5073552;28;20217;-90
2023/10/26 01:34:28;;;;;;;4.90;3.73;;;10.00;99.90;;;;;;5065956;28;20217;-90
2023/10/26 01:36:54;;;;;;;5.50;3.67;;;10.00;99.90;;;;;;5088317;28;20177;-90
2023/10/26 01:39:19;;;;;;;4.50;2.40;;;10.00;99.90;;;;;;5073701;28;20228;-90
2023/10/26 01:41:48;;;;;;;6.30;4.77;;;10.10;99.90;;;;;;5073060;28;20221;-91
2023/10/26 01:44:19;;;;;;;4.77;4.23;;;10.10;99.90;;;;;;5057656;28;20221;-91
2023/10/26 01:46:47;;;;;;;9.47;4.03;;;10.10;99.90;;;;;;5073983;28;20284;-90
2023/10/26 01:49:15;;;;;;;7.67;4.40;;;10.10;99.90;;;;;;5073398;28;20201;-90
2023/10/26 01:51:44;;;;;;;3.70;3.23;;;10.10;99.90;;;;;;5057833;28;20181;-91
2023/10/26 01:54:12;;;;;;;5.67;3.73;;;10.00;99.90;;;;;;5056980;28;20291;-90
2023/10/26 01:56:41;;;;;;;5.33;4.83;;;9.90;99.90;;;;;;5072866;28;20358;-90
2023/10/26 01:59:09;;;;;;;5.60;3.70;;;9.90;99.90;;;;;;5072100;28;20252;-90
2023/10/26 02:01:35;;;;;;;4.97;3.47;;;9.80;99.90;;;;;;5056060;28;20217;-90
2023/10/26 02:04:03;;;;;;;6.57;3.50;;;9.70;99.90;;;;;;5074362;28;20173;-90
2023/10/26 02:06:29;;;;;;;5.47;4.63;;;9.80;99.90;;;;;;5073735;28;20222;-90
2023/10/26 02:08:57;;;;;;;6.47;4.23;;;9.80;99.90;;;;;;5073342;28;20225;-90
2023/10/26 02:11:26;;;;;;;13.17;5.53;;;9.80;99.90;;;;;;5073983;28;20338;-90
2023/10/26 02:13:52;;;;;;;44.00;4.50;;;9.70;99.90;;;;;;5072926;28;20278;-91
2023/10/26 02:16:20;;;;;;;1.53;1.43;;;9.70;99.90;;;;;;5072662;28;20178;-90
2023/10/26 02:18:46;;;;;;;14.67;3.07;;;9.60;99.90;;;;;;5073411;28;20177;-90
2023/10/26 02:21:12;;;;;;;33.07;2.40;;;9.60;99.90;;;;;;5073899;28;20225;-90
2023/10/26 02:23:41;;;;;;;3.90;3.60;;;9.60;99.90;;;;;;5073213;28;20227;-89
2023/10/26 02:26:07;;;;;;;2.93;2.63;;;9.50;99.90;;;;;;5072150;28;20652;-89
2023/10/26 02:28:33;;;;;;;11.13;2.70;;;9.50;99.90;;;;;;5075420;28;20718;-90
2023/10/26 02:31:00;;;;;;;7.30;1.03;;;9.30;99.90;;;;;;5073197;28;20177;-89
2023/10/26 02:33:26;;;;;;;26.03;2.93;;;9.20;99.90;;;;;;5072772;28;20228;-89
2023/10/26 02:35:56;;;;;;;1.70;1.43;;;9.00;99.90;;;;;;5073139;28;20578;-90
2023/10/26 02:38:25;;;;;;;8.57;3.07;;;9.00;99.90;;;;;;5072848;28;20229;-90
2023/10/26 02:40:51;;;;;;;2.93;1.83;;;8.90;99.90;;;;;;5073737;28;20220;-89
2023/10/26 02:43:17;;;;;;;12.50;2.93;;;9.00;99.90;;;;;;5073588;28;20187;-90
2023/10/26 02:45:50;;;;;;;7.83;3.33;;;9.20;99.90;;;;;;5072919;28;20507;-88
2023/10/26 02:48:16;;;;;;;1.73;1.63;;;9.20;99.90;;;;;;5072818;28;20223;-90
2023/10/26 02:50:45;;;;;;;6.87;2.33;;;9.20;99.90;;;;;;5072792;28;20236;-89
2023/10/26 02:53:10;;;;;;;40.00;2.90;;;9.20;99.90;;;;;;5056214;28;20217;-89
2023/10/26 02:55:36;;;;;;;33.20;3.73;;;9.30;99.90;;;;;;5055556;28;20645;-89
2023/10/26 02:58:05;;;;;;;5.00;3.00;;;9.30;99.90;;;;;;5073375;28;20185;-90
2023/10/26 03:00:31;;;;;;;16.87;3.23;;;9.20;99.90;;;;;;5072476;28;20217;-89
2023/10/26 03:02:57;;;;;;;26.03;2.67;;;9.20;99.90;;;;;;5072335;28;20295;-90
2023/10/26 03:05:25;;;;;;;5.83;2.07;;;9.10;99.90;;;;;;5071953;28;20231;-90
2023/10/26 03:07:52;;;;;;;10.53;3.60;;;9.00;99.90;;;;;;5072173;28;20217;-90
2023/10/26 03:10:20;;;;;;;7.53;4.03;;;9.10;99.90;;;;;;5071931;28;20185;-89
2023/10/26 03:12:48;;;;;;;2.57;2.37;;;9.20;99.90;;;;;;5073293;28;20196;-90
2023/10/26 03:15:16;;;;;;;13.07;3.37;;;9.40;99.90;;;;;;5072424;28;20232;-90
2023/10/26 03:17:42;;;;;;;4.70;3.43;;;9.40;99.90;;;;;;5055424;28;20229;-89
2023/10/26 03:20:08;;;;;;;13.33;3.33;;;9.40;99.90;;;;;;5055550;28;20224;-90
2023/10/26 03:22:37;;;;;;;3.63;2.27;;;9.30;99.90;;;;;;5073012;28;20296;-90
2023/10/26 03:25:06;;;;;;;2.67;2.47;;;9.20;99.90;;;;;;5072868;28;20502;-90
2023/10/26 03:27:34;;;;;;;2.70;2.50;;;9.10;99.90;;;;;;5072010;28;20233;-90
2023/10/26 03:30:00;;;;;;;11.30;2.63;;;9.20;99.90;;;;;;5071904;28;20228;-90
2023/10/26 03:32:29;;;;;;;4.43;3.90;;;9.10;99.90;;;;;;5072227;28;20274;-90
2023/10/26 03:34:57;;;;;;;4.63;2.70;;;9.10;99.90;;;;;;5072870;28;20253;-89
2023/10/26 03:37:31;;;;;;;6.50;2.53;;;9.00;99.90;;;;;;5072540;28;20220;-90
2023/10/26 03:39:57;;;;;;;9.60;5.33;;;8.90;99.90;;;;;;5072981;28;20177;-90
2023/10/26 03:42:26;;;;;;;3.70;2.67;;;8.80;99.90;;;;;;5072449;28;20296;-91
2023/10/26 03:44:54;;;;;;;2.77;1.33;;;8.70;99.90;;;;;;5072022;28;20528;-90
2023/10/26 03:47:20;;;;;;;6.47;2.90;;;8.50;99.90;;;;;;5039229;28;20677;-90
2023/10/26 03:49:46;;;;;;;2.50;2.40;;;8.50;99.90;;;;;;5054699;28;20225;-88
2023/10/26 03:52:17;;;;;;;1.60;1.60;;;8.40;99.90;;;;;;5071720;28;20174;-90
2023/10/26 03:54:42;;;;;;;4.13;2.37;;;8.30;99.90;;;;;;5073243;28;20198;-90
2023/10/26 03:57:09;;;;;;;2.77;2.40;;;8.30;99.90;;;;;;5071935;28;20220;-90
2023/10/26 03:59:37;;;;;;;4.23;3.33;;;8.30;99.90;;;;;;5071649;28;20304;-89
2023/10/26 04:02:03;;;;;;;17.93;2.77;;;8.20;99.90;;;;;;5073402;28;20235;-90
2023/10/26 04:04:31;;;;;;;2.13;1.93;;;8.30;99.90;;;;;;5073061;28;20236;-91
2023/10/26 04:07:00;;;;;;;5.50;2.10;;;8.20;99.90;;;;;;5073100;28;20174;-89
2023/10/26 04:09:27;;;;;;;2.20;2.03;;;8.20;99.90;;;;;;5072827;28;20225;-89
2023/10/26 04:11:53;;;;;;;2.60;2.40;;;8.20;99.90;;;;;;5071444;28;20270;-90
2023/10/26 04:14:22;;;;;;;23.30;3.40;;;8.20;99.90;;;;;;5071598;28;20240;-90
2023/10/26 04:16:50;;;;;;;2.00;1.87;;;8.20;99.90;;;;;;5055319;28;20213;-89
2023/10/26 04:19:16;;;;;;;2.63;2.43;;;8.20;99.90;;;;;;5072203;28;20189;-88
2023/10/26 04:21:42;;;;;;;1.63;1.53;;;8.20;99.90;;;;;;5074030;28;20222;-89
2023/10/26 04:24:10;;;;;;;2.00;1.70;;;8.10;99.90;;;;;;5067788;28;20306;-90
2023/10/26 04:26:36;;;;;;;2.97;1.57;;;8.10;99.90;;;;;;5058461;28;20217;-90
2023/10/26 04:29:02;;;;;;;1.33;1.23;;;8.10;99.90;;;;;;5074982;28;20228;-90
2023/10/26 04:31:30;;;;;;;2.57;1.80;;;8.00;99.90;;;;;;5058127;28;20177;-91
2023/10/26 04:33:55;;;;;;;1.87;1.77;;;8.00;99.90;;;;;;5075417;28;20240;-90
2023/10/26 04:36:21;;;;;;;2.97;2.63;;;8.00;99.90;;;;;;5075329;28;20225;-91
2023/10/26 04:38:47;;;;;;;3.50;2.50;;;8.00;99.90;;;;;;5075112;28;20735;-90
2023/10/26 04:41:13;;;;;;;2.93;2.63;;;8.00;99.90;;;;;;5041654;28;20217;-90
2023/10/26 04:43:42;;;;;;;2.93;2.50;;;7.90;99.90;;;;;;5058509;28;20217;-90
2023/10/26 04:46:10;;;;;;;11.07;1.93;;;7.80;99.90;;;;;;5042657;28;20162;-90
2023/10/26 04:48:40;;;;;;;3.73;3.43;;;7.80;99.90;;;;;;5075550;28;20205;-90
2023/10/26 04:51:08;;;;;;;9.63;2.60;;;8.10;99.90;;;;;;5074567;28;20225;-90
2023/10/26 04:53:36;;;;;;;5.17;2.23;;;8.40;99.90;;;;;;5074532;28;20216;-90
2023/10/26 04:56:02;;;;;;;4.23;2.10;;;8.60;99.90;;;;;;5033081;28;20217;-90
2023/10/26 04:58:28;;;;;;;4.50;3.30;;;8.90;99.90;;;;;;5074903;28;20231;-89
2023/10/26 05:00:54;;;;;;;3.03;2.23;;;9.10;99.90;;;;;;5075147;28;20173;-89
2023/10/26 05:03:20;;;;;;;7.07;5.30;;;9.10;99.90;;;;;;5074740;28;20227;-89
2023/10/26 05:05:48;;;;;;;3.33;2.87;;;9.30;99.90;;;;;;5074420;28;20300;-88
2023/10/26 05:08:16;;;;;;;4.27;3.93;;;9.30;99.90;;;;;;5034121;28;20311;-89
2023/10/26 05:10:42;;;;;;;6.10;5.43;;;9.40;99.90;;;;;;5082186;28;20220;-89
2023/10/26 05:13:10;;;;;;;6.43;4.43;;;9.50;99.90;;;;;;5058405;28;20174;-90
2023/10/26 05:15:36;;;;;;;5.43;4.93;;;9.50;99.90;;;;;;5073492;28;20278;-90
2023/10/26 05:18:04;;;;;;;11.50;5.40;;;9.60;99.90;;;;;;5075601;28;20225;-91
2023/10/26 05:20:41;;;;;;;4.23;3.83;;;9.70;99.90;;;;;;5066749;28;20220;-92
2023/10/26 05:23:10;;;;;;;7.87;4.13;;;9.80;99.90;;;;;;5078690;28;20255;-91
2023/10/26 05:25:41;;;;;;;5.67;3.73;;;9.70;99.90;;;;;;5057514;28;20570;-93
2023/10/26 05:28:09;;;;;;;6.47;5.10;;;9.60;99.90;;;;;;5058834;28;20197;-92
2023/10/26 05:30:39;;;;;;;28.13;3.47;;;9.50;99.90;;;;;;5074288;28;20663;-93
2023/10/26 05:33:10;;;;;;;5.87;5.37;;;9.50;99.90;;;;;;5057639;28;20260;-91
2023/10/26 05:35:40;;;;;;;5.80;4.77;;;9.40;99.90;;;;;;5057481;28;20228;-92
2023/10/26 05:38:11;;;;;;;8.57;6.27;;;9.40;99.90;;;;;;5049522;28;20227;-90
2023/10/26 05:40:37;;;;;;;4.70;3.60;;;9.30;99.90;;;;;;5057120;28;20296;-93
2023/10/26 05:43:05;;;;;;;7.23;6.33;;;9.30;99.90;;;;;;5074395;28;20620;-90
2023/10/26 05:45:37;;;;;;;8.03;6.37;;;9.40;99.90;;;;;;5073990;28;20224;-92
2023/10/26 05:48:05;;;;;;;36.93;5.53;;;9.40;99.90;;;;;;5073796;28;20229;-91
2023/10/26 05:50:40;;;;;;;20.37;6.03;;;9.50;99.90;;;;;;5073762;28;20645;-91
2023/10/26 05:53:10;;;;;;;3.63;2.07;;;9.40;99.90;;;;;;5058303;28;20217;-91
2023/10/26 05:55:39;;;;;;;47.73;4.90;;;9.40;99.90;;;;;;5072959;28;20216;-90
2023/10/26 05:58:05;;;;;;;3.70;2.20;;;9.00;99.90;;;;;;5073776;28;20706;-90
2023/10/26 06:00:31;;;;;;;16.33;1.47;;;8.80;99.90;;;;;;5073168;28;20275;-93
2023/10/26 06:03:00;;;;;;;23.53;1.37;;;8.70;99.90;;;;;;5056457;28;20220;-90
2023/10/26 06:05:27;;;;;;;0.57;0.57;;;8.40;99.90;;;;;;5073495;28;20221;-92
2023/10/26 06:07:55;;;;;;;30.00;2.30;;;8.40;99.90;;;;;;5072867;28;20229;-89
2023/10/26 06:10:21;;;;;;;2.87;2.63;;;8.40;99.90;;;;;;5072899;28;20192;-88
2023/10/26 06:12:47;;;;;;;9.50;3.17;;;8.50;99.90;;;;;;5073956;28;20170;-88
2023/10/26 06:15:13;;;;;;;3.00;2.77;;;8.60;99.90;;;;;;5073295;28;20244;-88
2023/10/26 06:17:42;;;;;;;3.77;3.30;;;8.70;99.90;;;;;;5072488;28;20304;-89
2023/10/26 06:20:09;;;;;;;9.10;3.60;;;8.70;99.90;;;;;;5072870;28;20244;-87
2023/10/26 06:22:37;;;;;;;4.50;3.13;;;8.70;99.90;;;;;;5072256;28;20223;-89
2023/10/26 06:25:05;;;;;;;5.30;3.57;;;8.90;99.90;;;;;;5074022;28;20264;-88
2023/10/26 06:27:32;;;;;;;34.60;4.03;;;9.10;99.90;;;;;;5056142;28;20304;-92
2023/10/26 06:29:58;;;;;;;3.43;3.13;;;9.20;99.90;;;;;;5039741;28;20256;-87
2023/10/26 06:32:26;;;;;;;5.07;3.97;;;9.30;99.90;;;;;;5055169;28;20270;-87
2023/10/26 06:34:54;;;;;;;3.47;2.47;;;9.50;99.90;;;;;;5065615;28;20320;-87
2023/10/26 06:37:20;;;;;;;5.63;3.57;;;9.60;99.90;;;;;;5055860;28;20659;-87
2023/10/26 06:39:46;;;;;;;6.23;4.47;;;9.70;99.90;;;;;;5039213;28;20177;-87
2023/10/26 06:42:12;;;;;;;4.07;2.07;;;9.80;99.90;;;;;;5039061;28;20220;-87
2023/10/26 06:44:39;;;;;;;4.07;2.73;;;9.80;99.90;;;;;;5038406;28;20205;-88
2023/10/26 06:47:04;;;;;;;3.17;2.97;;;9.90;99.90;;;;;;5071755;28;20259;-88
2023/10/26 06:49:30;;;;;;;5.77;3.43;;;10.00;99.90;;;;;;5071605;28;20241;-87
2023/10/26 06:51:56;;;;;;;6.13;4.10;;;10.10;99.90;;;;;;5039140;28;20177;-89
2023/10/26 06:54:22;;;;;;;6.23;3.17;;;10.00;99.90;;;;;;5039023;28;20209;-87
2023/10/26 06:56:48;;;;;;;4.13;3.80;;;10.00;99.90;;;;;;5055027;28;20289;-88
2023/10/26 06:59:13;;;;;;;5.47;3.67;;;10.00;99.90;;;;;;5072307;28;20233;-88
2023/10/26 07:01:45;;;;;;;10.87;3.80;;;10.20;99.90;;;;;;5038549;28;20260;-89
2023/10/26 07:04:13;;;;;;;3.90;3.33;;;10.30;99.90;;;;;;5056564;28;20172;-89
2023/10/26 07:06:39;;;;;;;7.83;4.43;;;10.30;99.90;;;;;;5072114;28;20292;-88
2023/10/26 07:09:04;;;;;;;6.27;4.00;;;10.30;99.90;;;;;;5071787;28;20266;-89
2023/10/26 07:11:32;;;;;;;9.43;4.97;;;10.50;99.90;;;;;;5071833;28;20225;-87
2023/10/26 07:13:58;;;;;;;5.27;4.17;;;10.70;99.90;;;;;;5071598;28;20213;-89
2023/10/26 07:16:24;;;;;;;6.67;4.90;;;10.90;99.90;;;;;;5038810;28;20192;-88
2023/10/26 07:18:51;;;;;;;8.63;5.17;;;10.80;99.90;;;;;;5038876;28;20192;-88
2023/10/26 07:21:19;;;;;;;12.83;5.07;;;10.90;99.90;;;;;;5071447;28;20253;-87
2023/10/26 07:23:47;;;;;;;11.80;7.00;;;11.00;99.90;;;;;;5055065;28;20715;-88
2023/10/26 07:26:19;;;;;;;8.20;6.90;;;11.10;99.90;;;;;;5072818;28;20217;-89
2023/10/26 07:28:45;;;;;;;12.00;7.93;;;11.10;99.90;;;;;;5045977;28;20225;-88
2023/10/26 07:31:19;;;;;;;9.07;4.97;;;11.20;99.90;;;;;;5072743;28;20169;-88
2023/10/26 07:33:45;;;;;;;7.03;5.93;;;11.20;99.90;;;;;;5055278;28;20259;-88
2023/10/26 07:36:11;;;;;;;7.17;5.80;;;11.30;99.90;;;;;;5072987;28;20236;-90
2023/10/26 07:38:41;;;;;;;7.90;5.10;;;11.40;99.90;;;;;;5038412;28;20225;-89
2023/10/26 07:41:09;;;;;;;12.87;6.17;;;11.50;99.90;;;;;;5071611;28;20213;-89
2023/10/26 07:43:35;;;;;;;13.87;6.83;;;11.50;99.90;;;;;;5071487;28;20213;-90
2023/10/26 07:46:12;;;;;;;10.07;6.33;;;11.60;99.90;;;;;;5072793;28;20177;-90
2023/10/26 07:48:38;;;;;;;11.17;6.57;;;11.60;99.90;;;;;;5072311;28;20240;-90
2023/10/26 07:51:07;;;;;;;8.07;6.07;;;11.80;99.90;;;;;;5071570;28;20252;-89
2023/10/26 07:53:33;;;;;;;10.87;6.40;;;11.90;99.90;;;;;;5039082;28;20319;-87
2023/10/26 07:56:02;;;;;;;13.80;8.97;;;11.90;99.90;;;;;;5064006;28;20675;-87
2023/10/26 07:58:30;;;;;;;20.87;7.37;;;12.00;99.90;;;;;;5074845;28;20189;-88
2023/10/26 08:00:59;;;;;;;14.50;6.53;;;12.10;99.90;;;;;;5075639;28;20201;-87
2023/10/26 08:03:25;;;;;;;18.20;8.10;;;12.00;99.90;;;;;;5076561;28;20224;-87
2023/10/26 08:06:10;;;;;;;11.97;6.90;;;12.20;99.90;;;;;;5058668;28;20213;-90
2023/10/26 08:08:36;;;;;;;6.80;5.40;;;12.10;99.90;;;;;;5059929;28;20225;-92
2023/10/26 08:11:12;;;;;;;8.07;5.47;;;12.30;99.90;;;;;;5050836;28;20303;-91
2023/10/26 08:13:41;;;;;;;11.53;8.20;;;12.60;99.90;;;;;;5075314;28;20232;-90
2023/10/26 08:16:13;;;;;;;10.60;6.20;;;13.10;99.90;;;;;;5076572;28;20261;-91
2023/10/26 08:18:41;;;;;;;10.50;8.13;;;13.50;99.90;;;;;;5075990;28;20659;-89
2023/10/26 08:21:13;;;;;;;17.00;10.67;;;13.50;99.90;;;;;;5075615;28;20643;-91
2023/10/26 08:23:44;;;;;;;13.27;6.97;;;13.20;99.90;;;;;;5058258;28;20223;-90
2023/10/26 08:26:12;;;;;;;7.97;6.90;;;13.00;99.90;;;;;;5075290;28;20245;-90
2023/10/26 08:28:40;;;;;;;13.43;7.47;;;13.00;99.90;;;;;;5075846;28;20236;-91
2023/10/26 08:31:17;;;;;;;8.03;6.93;;;12.90;99.90;;;;;;5066432;28;20169;-91
2023/10/26 08:33:43;;;;;;;10.17;7.13;;;13.10;99.90;;;;;;5075542;28;20241;-89
2023/10/26 08:36:14;;;;;;;11.43;6.87;;;13.20;99.90;;;;;;5075484;28;20602;-91
2023/10/26 08:38:40;;;;;;;12.67;6.97;;;13.20;99.90;;;;;;5058346;28;20213;-91
2023/10/26 08:41:15;;;;;;;8.10;5.43;;;13.20;99.90;;;;;;5067706;28;20213;-90
2023/10/26 08:43:45;;;;;;;14.93;4.63;;;13.20;99.90;;;;;;5074661;28;20208;-91
2023/10/26 08:46:12;;;;;;;11.67;7.03;;;13.30;99.90;;;;;;5075429;28;20178;-91
2023/10/26 08:48:45;;;;;;;15.13;7.47;;;13.10;99.90;;;;;;5075395;28;20288;-88
2023/10/26 08:51:11;;;;;;;10.63;6.03;;;13.10;99.90;;;;;;5074684;28;20288;-89
2023/10/26 08:53:37;;;;;;;6.83;4.70;;;13.00;99.90;;;;;;5075264;28;20248;-89
2023/10/26 08:56:08;;;;;;;8.27;6.57;;;13.10;99.90;;;;;;5066000;28;20213;-89
2023/10/26 08:58:34;;;;;;;15.10;6.10;;;13.20;99.90;;;;;;5075417;28;20212;-89
2023/10/26 09:01:02;;;;;;;8.13;5.60;;;13.20;99.90;;;;;;5074500;28;20268;-89
2023/10/26 09:03:27;;;;;;;8.67;4.37;;;13.10;99.90;;;;;;5065527;28;20225;-88
2023/10/26 09:05:55;;;;;;;7.40;6.47;;;13.20;99.90;;;;;;5075755;28;20703;-88
2023/10/26 09:08:23;;;;;;;13.83;7.63;;;13.10;99.90;;;;;;5074061;28;20271;-89
2023/10/26 09:10:51;;;;;;;10.93;6.00;;;13.10;99.90;;;;;;5075039;28;20213;-87
2023/10/26 09:13:27;;;;;;;7.17;6.10;;;13.10;99.90;;;;;;5073731;28;20622;-86
2023/10/26 09:15:57;;;;;;;10.93;7.47;;;13.10;99.90;;;;;;5074697;28;20258;-88
2023/10/26 09:18:27;;;;;;;13.73;7.13;;;13.20;99.90;;;;;;5073924;28;20286;-88
2023/10/26 09:21:10;;;;;;;10.83;6.20;;;13.20;99.90;;;;;;5073565;28;20241;-88
2023/10/26 09:23:37;;;;;;;10.87;7.00;;;13.20;99.90;;;;;;5057267;28;20756;-88
2023/10/26 09:26:08;;;;;;;8.77;6.17;;;12.90;99.90;;;;;;5073912;28;20286;-89
2023/10/26 09:28:54;;;;;;;16.17;6.07;;;13.00;99.90;;;;;;5073399;28;20235;-88
2023/10/26 09:31:20;;;;;;;8.03;5.60;;;12.90;99.90;;;;;;5073345;28;20181;-87
2023/10/26 09:33:47;;;;;;;13.30;5.97;;;13.00;99.90;;;;;;5073838;28;20251;-87
2023/10/26 09:36:18;;;;;;;10.00;7.00;;;13.00;99.90;;;;;;5048750;28;20307;-89
2023/10/26 09:38:44;;;;;;;12.47;8.23;;;13.00;99.90;;;;;;5073709;28;20213;-90
2023/10/26 09:41:16;;;;;;;14.53;7.30;;;12.80;99.90;;;;;;5075013;28;20228;-87
2023/10/26 09:43:42;;;;;;;12.30;6.83;;;12.80;99.90;;;;;;5056221;28;20302;-87
2023/10/26 09:46:11;;;;;;;12.77;7.33;;;12.80;99.90;;;;;;5074609;28;20260;-87
2023/10/26 09:48:38;;;;;;;23.03;6.53;;;12.90;99.90;;;;;;5056110;28;20649;-88
2023/10/26 09:51:04;;;;;;;7.50;6.33;;;12.80;99.90;;;;;;5078338;28;20216;-87
2023/10/26 09:53:33;;;;;;;14.43;6.13;;;12.80;99.90;;;;;;5073574;28;20288;-87
2023/10/26 09:56:01;;;;;;;7.87;7.17;;;12.70;99.90;;;;;;5073396;28;20205;-86
2023/10/26 09:58:30;;;;;;;9.17;5.90;;;12.70;99.90;;;;;;5073391;28;20181;-86
2023/10/26 10:00:56;;;;;;;10.43;5.97;;;12.80;99.90;;;;;;5072702;28;20178;-88
2023/10/26 10:03:22;;;;;;;8.80;5.53;;;12.60;99.90;;;;;;5072451;28;20205;-87
2023/10/26 10:05:48;;;;;;;12.63;6.20;;;12.60;99.90;;;;;;5072032;28;20538;-82
2023/10/26 10:08:34;;;;;;;14.03;6.27;;;12.60;99.90;;;;;;5071459;28;20217;-82
2023/10/26 10:11:19;;;;;;;15.87;5.67;;;12.70;99.90;;;;;;5071153;28;20614;-82
2023/10/26 10:13:45;;;;;;;9.17;5.43;;;12.90;99.90;;;;;;5054538;28;20201;-82
2023/10/26 10:16:45;;;;;;;11.13;6.27;;;13.00;99.90;;;;;;5070951;28;20273;-82
2023/10/26 10:19:20;;;;;;;8.83;7.70;;;12.90;99.90;;;;;;5017894;28;20211;-82
2023/10/26 10:21:51;;;;;;;10.93;4.83;;;13.00;99.90;;;;;;5071886;28;20188;-83
2023/10/26 10:24:39;;;;;;;14.53;6.73;;;13.10;99.90;;;;;;5053982;28;20221;-82
2023/10/26 10:27:13;;;;;;;11.77;6.77;;;13.10;99.90;;;;;;5070669;28;20228;-83
2023/10/26 10:29:42;;;;;;;12.93;6.13;;;13.20;99.90;;;;;;5070737;28;20241;-82
2023/10/26 10:32:32;;;;;;;15.17;8.03;;;13.30;99.90;;;;;;5054498;28;20243;-83
2023/10/26 10:35:00;;;;;;;7.20;5.50;;;13.30;99.90;;;;;;5070324;28;20263;-83
2023/10/26 10:37:26;;;;;;;12.63;7.70;;;13.10;99.90;;;;;;5070874;28;20190;-82
2023/10/26 10:40:12;;;;;;;9.57;6.43;;;13.10;99.90;;;;;;5054675;28;20185;-81
2023/10/26 10:42:39;;;;;;;6.23;5.63;;;13.10;99.90;;;;;;5071124;28;20237;-82
2023/10/26 10:45:13;;;;;;;8.77;5.53;;;13.20;99.90;;;;;;5070488;28;20224;-82
2023/10/26 10:47:43;;;;;;;7.80;4.17;;;13.30;99.90;;;;;;5070779;28;20213;-82
2023/10/26 10:50:19;;;;;;;12.07;5.33;;;13.30;99.90;;;;;;5070602;28;20221;-83
2023/10/26 10:52:50;;;;;;;10.57;5.83;;;13.10;99.90;;;;;;5070631;28;20254;-82
2023/10/26 10:55:22;;;;;;;11.43;5.80;;;13.00;99.90;;;;;;5071281;28;20177;-83
2023/10/26 10:57:57;;;;;;;17.20;7.17;;;13.20;99.90;;;;;;5071340;28;20173;-83
2023/10/26 11:00:24;;;;;;;9.27;6.60;;;13.50;99.90;;;;;;5054022;28;20577;-82
2023/10/26 11:02:52;;;;;;;5.80;5.20;;;13.70;99.90;;;;;;5053807;28;20209;-82
2023/10/26 11:05:18;;;;;;;11.20;6.80;;;14.00;99.90;;;;;;5071188;28;20217;-82
2023/10/26 11:07:44;;;;;;;9.03;6.20;;;14.50;99.90;;;;;;5071622;28;20209;-82
2023/10/26 11:10:10;;;;;;;10.33;5.13;;;14.50;99.90;;;;;;5071512;28;20637;-83
2023/10/26 11:12:36;;;;;;;12.00;6.30;;;14.70;99.90;;;;;;5070799;28;20629;-83
2023/10/26 11:15:03;;;;;;;9.60;6.57;;;14.50;99.90;;;;;;5070421;28;20300;-83
2023/10/26 11:17:31;;;;;;;10.53;7.10;;;14.80;99.90;;;;;;5070329;28;20319;-82
2023/10/26 11:19:56;;;;;;;7.57;5.67;;;14.60;99.90;;;;;;5070145;28;20295;-82
2023/10/26 11:22:23;;;;;;;6.97;5.40;;;14.40;99.90;;;;;;5053736;28;20208;-82
2023/10/26 11:24:49;;;;;;;9.70;6.23;;;14.40;99.90;;;;;;5054088;28;20201;-83
2023/10/26 11:27:17;;;;;;;6.83;4.83;;;14.60;99.90;;;;;;5069945;28;20238;-83
2023/10/26 11:29:44;;;;;;;7.67;6.07;;;14.60;99.90;;;;;;5071525;28;20247;-83
2023/10/26 11:32:18;;;;;;;7.63;5.07;;;14.60;99.90;;;;;;5076893;28;20216;-82
2023/10/26 11:35:09;;;;;;;6.67;4.93;;;14.50;99.90;;;;;;5043894;28;20263;-83
2023/10/26 11:37:36;;;;;;;8.73;3.77;;;14.40;99.90;;;;;;5060316;28;20224;-83
2023/10/26 11:40:07;;;;;;;6.23;5.33;;;14.20;99.90;;;;;;5076994;28;20189;-83
2023/10/26 11:42:52;;;;;;;6.47;5.83;;;14.20;99.90;;;;;;5060328;28;20220;-83
2023/10/26 11:45:20;;;;;;;7.40;4.67;;;14.30;99.90;;;;;;5076987;28;20742;-83
2023/10/26 11:47:51;;;;;;;9.60;4.27;;;13.90;99.90;;;;;;5077123;28;20288;-83
2023/10/26 11:50:37;;;;;;;10.50;5.10;;;13.70;99.90;;;;;;5078521;28;20329;-83
2023/10/26 11:53:04;;;;;;;14.00;6.37;;;13.70;99.90;;;;;;5060197;28;20208;-83
2023/10/26 11:55:32;;;;;;;8.33;5.77;;;13.90;99.90;;;;;;5078313;28;20223;-86
2023/10/26 11:58:05;;;;;;;8.80;5.27;;;14.30;99.90;;;;;;5078128;28;20208;-86
2023/10/26 12:00:30;;;;;;;9.47;4.33;;;14.50;99.90;;;;;;5062370;28;20223;-85
2023/10/26 12:02:58;;;;;;;9.57;4.53;;;14.30;99.90;;;;;;5077264;28;20611;-86
2023/10/26 12:05:24;;;;;;;8.33;5.47;;;14.30;99.90;;;;;;5077383;28;20221;-87
2023/10/26 12:07:53;;;;;;;6.80;5.23;;;14.10;99.90;;;;;;5076858;28;20220;-86
2023/10/26 12:10:21;;;;;;;8.47;5.00;;;14.00;99.90;;;;;;5077307;28;20170;-87
2023/10/26 12:12:50;;;;;;;6.27;5.27;;;14.30;99.90;;;;;;5077881;28;20226;-86
2023/10/26 12:15:16;;;;;;;8.40;4.50;;;14.20;99.90;;;;;;5077692;28;20209;-86
2023/10/26 12:17:45;;;;;;;7.30;4.70;;;14.20;99.90;;;;;;5076925;28;20220;-86
2023/10/26 12:20:13;;;;;;;12.10;5.80;;;14.40;99.90;;;;;;5060479;28;20308;-85
2023/10/26 12:22:39;;;;;;;7.77;4.90;;;14.20;99.90;;;;;;5044165;28;20224;-86
2023/10/26 12:25:07;;;;;;;12.57;6.13;;;14.20;99.90;;;;;;5061055;28;20272;-86
2023/10/26 12:27:37;;;;;;;7.20;5.30;;;14.30;99.90;;;;;;5078274;28;20221;-85
2023/10/26 12:30:03;;;;;;;6.90;5.50;;;14.40;99.90;;;;;;5076594;28;20253;-87
2023/10/26 12:32:32;;;;;;;5.93;4.60;;;14.40;99.90;;;;;;5076903;28;20224;-85
2023/10/26 12:34:58;;;;;;;9.70;4.23;;;14.30;99.90;;;;;;5076728;28;20275;-85
2023/10/26 12:37:24;;;;;;;13.10;5.87;;;14.40;99.90;;;;;;5076606;28;20217;-85
2023/10/26 12:39:50;;;;;;;10.50;6.27;;;14.30;99.90;;;;;;5078425;28;20177;-85
2023/10/26 12:42:17;;;;;;;8.00;4.80;;;14.10;99.90;;;;;;5074704;28;20217;-85
2023/10/26 12:44:43;;;;;;;6.30;4.33;;;14.00;99.90;;;;;;5073691;28;20224;-85
2023/10/26 12:47:09;;;;;;;7.33;5.10;;;13.80;99.90;;;;;;5056860;28;20297;-85
2023/10/26 12:49:34;;;;;;;8.10;4.67;;;13.80;99.90;;;;;;5073167;28;20253;-86
2023/10/26 12:52:01;;;;;;;10.73;6.30;;;13.60;99.90;;;;;;5075477;28;20197;-85
2023/10/26 12:54:27;;;;;;;11.20;7.07;;;13.40;99.90;;;;;;5073723;28;20209;-85